Kremmling, CO

7:55 PM MST on December 15, 2019 (GMT -0700)
Kremmling

Weather History for K20V - October, 2019

Change the Weather History Date:

Tuesday, October 22, 2019

  Actual Average Record
Temperature  
Mean Temperature 38 °F -  
Max Temperature 45 °F - 78 °F (2003)
Min Temperature 30 °F - 10 °F (2007)
Degree Days  
Heating Degree Days 28    
Month to date heating degree days 540  
Cooling Degree Days 0    
Month to date cooling degree days 0  
Moisture  
Dew Point 26 °F    
Average Humidity 65    
Maximum Humidity 80    
Minimum Humidity 49    
Precipitation  
Precipitation 0.00 in - 0.38 in (2015)
Snow  
Snow 0.00 in - - ()
Snow Depth 0.00 in    
Sea Level Pressure  
Sea Level Pressure 30.27 in    
Wind  
Wind Speed 8 mph ()    
Max Wind Speed 24 mph    
Max Gust Speed 30 mph    
Visibility 10.0 miles    
Events Snow    
T = Trace of Precipitation, MM = Missing Value Source: Averaged Metar Reports

Daily Weather History Graph

Daily Weather History Graph

Search for Another Location

Airport or City:

Astronomy

Oct. 22, 2019 Rise Set
Actual Time 7:23 AM MDT 6:15 PM MDT
Civil Twilight 6:55 AM MDT 6:43 PM MDT
Nautical Twilight 6:24 AM MDT 7:15 PM MDT
Astronomical Twilight 5:52 AM MDT 7:46 PM MDT
Moon 12:36 AM MDT (10/22) 3:27 PM MDT (10/22)
Length of Visible Light 11h 47m
Length of Day
10h 52m
Last Quarter, 36% of the Moon is Illuminated
Oct 22
Last Quarter
Oct 27
New
Nov 4
First Quarter
Nov 12
Full
Nov 19
Last Quarter

Hourly Weather History & Observations

Time (MDT) Temp. Windchill Dew Point Humidity Pressure Visibility Wind Dir Wind Speed Gust Speed Precip Events Conditions
12:12 AM 32.0 °F 26.4 °F 24.8 °F 75% 30.30 in 10.0 mi WNW 5.8 mph - N/A   Overcast
12:31 AM 32.0 °F 24.8 °F 23.0 °F 69% 30.30 in 10.0 mi WNW 8.1 mph - N/A   Overcast
12:48 AM 32.0 °F 25.6 °F 23.0 °F 69% 30.30 in 10.0 mi West 6.9 mph - N/A   Overcast
1:12 AM 32.0 °F 25.6 °F 23.0 °F 69% 30.31 in 10.0 mi West 6.9 mph - N/A   Overcast
1:30 AM 32.0 °F 25.6 °F 23.0 °F 69% 30.31 in 10.0 mi West 6.9 mph - N/A   Mostly Cloudy
1:48 AM 30.2 °F 25.4 °F 23.0 °F 75% 30.31 in 10.0 mi West 4.6 mph - N/A   Mostly Cloudy
2:13 AM 32.0 °F 28.7 °F 23.0 °F 69% 30.31 in 10.0 mi West 3.5 mph - N/A   Overcast
2:31 AM 32.0 °F 28.7 °F 23.0 °F 69% 30.31 in 10.0 mi West 3.5 mph - N/A Snow Light Snow
2:49 AM 32.0 °F 27.5 °F 23.0 °F 69% 30.32 in 10.0 mi West 4.6 mph - N/A   Overcast
3:12 AM 32.0 °F 23.0 °F 23.0 °F 69% 30.31 in 10.0 mi WSW 11.5 mph - N/A   Overcast
3:30 AM 32.0 °F 24.8 °F 26.6 °F 80% 30.32 in 10.0 mi WSW 8.1 mph - N/A   Overcast
3:54 AM 32.0 °F 22.1 °F 26.6 °F 80% 30.31 in 10.0 mi WSW 13.8 mph - N/A   Overcast
4:12 AM 32.0 °F 22.5 °F 26.6 °F 80% 30.32 in 10.0 mi WSW 12.7 mph - N/A   Overcast
4:30 AM 32.0 °F 23.0 °F 26.6 °F 80% 30.31 in 10.0 mi West 11.5 mph - N/A   Overcast
4:54 AM 32.0 °F 23.0 °F 26.6 °F 80% 30.32 in 10.0 mi West 11.5 mph 17.3 mph N/A   Overcast
5:12 AM 32.0 °F 24.8 °F 26.6 °F 80% 30.32 in 10.0 mi WSW 8.1 mph - N/A   Overcast
5:30 AM 32.0 °F 25.6 °F 26.6 °F 80% 30.32 in 10.0 mi WSW 6.9 mph - N/A   Overcast
5:53 AM 32.0 °F 24.8 °F 24.8 °F 75% 30.32 in 10.0 mi WSW 8.1 mph - N/A   Overcast
6:12 AM 33.8 °F 26.4 °F 26.6 °F 75% 30.32 in 10.0 mi WSW 9.2 mph - N/A   Overcast
6:29 AM 33.8 °F 28.6 °F 24.8 °F 70% 30.32 in 10.0 mi WSW 5.8 mph - N/A   Overcast
6:52 AM 33.8 °F 30.8 °F 24.8 °F 70% 30.33 in 10.0 mi WSW 3.5 mph - N/A   Overcast
7:11 AM 33.8 °F 29.6 °F 24.8 °F 70% 30.34 in 10.0 mi SW 4.6 mph - N/A   Overcast
7:34 AM 33.8 °F 26.4 °F 23.0 °F 65% 30.34 in 10.0 mi WSW 9.2 mph - N/A   Overcast
7:52 AM 33.8 °F 27.0 °F 24.8 °F 70% 30.34 in 10.0 mi West 8.1 mph - N/A   Overcast
8:12 AM 33.8 °F 27.7 °F 23.0 °F 65% 30.34 in 10.0 mi WSW 6.9 mph - N/A   Overcast
8:30 AM 33.8 °F 27.0 °F 23.0 °F 65% 30.34 in 10.0 mi WSW 8.1 mph - N/A   Overcast
8:54 AM 33.8 °F 27.7 °F 23.0 °F 65% 30.35 in 10.0 mi WSW 6.9 mph - N/A   Overcast
9:12 AM 33.8 °F 27.7 °F 23.0 °F 65% 30.35 in 10.0 mi SW 6.9 mph - N/A   Overcast
9:30 AM 33.8 °F 25.8 °F 23.0 °F 65% 30.35 in 10.0 mi WSW 10.4 mph - N/A   Overcast
9:54 AM 35.6 °F 28.0 °F 24.8 °F 65% 30.35 in 10.0 mi WSW 10.4 mph - N/A   Overcast
10:12 AM 35.6 °F 26.6 °F 24.8 °F 65% 30.35 in 10.0 mi WSW 13.8 mph 18.4 mph N/A   Overcast
10:30 AM 35.6 °F 26.6 °F 24.8 °F 65% 30.34 in 10.0 mi WSW 13.8 mph 17.3 mph N/A   Overcast
10:48 AM 35.6 °F 27.1 °F 24.8 °F 65% 30.35 in 10.0 mi WSW 12.7 mph - N/A   Overcast
11:12 AM 35.6 °F 28.0 °F 26.6 °F 70% 30.34 in 10.0 mi WSW 10.4 mph 16.1 mph N/A   Overcast
11:48 AM 37.4 °F 29.3 °F 26.6 °F 65% 30.32 in 10.0 mi WSW 12.7 mph 21.9 mph N/A   Overcast
12:12 PM 39.2 °F 30.2 °F 26.6 °F 61% 30.31 in 10.0 mi WSW 17.3 mph 25.3 mph N/A   Overcast
12:30 PM 42.8 °F 34.5 °F 28.4 °F 57% 30.31 in 10.0 mi WSW 18.4 mph 27.6 mph N/A   Overcast
12:48 PM 44.6 °F 35.9 °F 28.4 °F 53% 30.29 in 10.0 mi WSW 23.0 mph - N/A   Overcast
1:12 PM 44.6 °F 35.9 °F 30.2 °F 57% 30.28 in 10.0 mi WSW 23.0 mph 29.9 mph N/A   Overcast
1:30 PM 42.8 °F 33.3 °F 26.6 °F 53% 30.27 in 10.0 mi WSW 24.2 mph - N/A   Overcast
1:48 PM 42.8 °F 35.4 °F 28.4 °F 57% 30.27 in 10.0 mi WSW 15.0 mph 21.9 mph N/A   Overcast
2:12 PM 42.8 °F 35.8 °F 28.4 °F 57% 30.26 in 10.0 mi West 13.8 mph 23.0 mph N/A   Overcast
2:30 PM 42.8 °F 36.2 °F 28.4 °F 57% 30.24 in 10.0 mi SW 12.7 mph 17.3 mph N/A   Overcast
2:48 PM 42.8 °F 35.8 °F 28.4 °F 57% 30.24 in 10.0 mi WSW 13.8 mph - N/A   Overcast
3:12 PM 42.8 °F 38.0 °F 28.4 °F 57% 30.22 in 10.0 mi SW 8.1 mph - N/A   Overcast
3:30 PM 42.8 °F 37.0 °F 28.4 °F 57% 30.22 in 10.0 mi WSW 10.4 mph - N/A   Overcast
3:48 PM 42.8 °F 38.6 °F 28.4 °F 57% 30.22 in 10.0 mi SW 6.9 mph - N/A   Overcast
4:12 PM 42.8 °F 37.0 °F 28.4 °F 57% 30.21 in 10.0 mi WSW 10.4 mph - N/A   Overcast
4:29 PM 42.8 °F 39.3 °F 28.4 °F 57% 30.21 in 10.0 mi WSW 5.8 mph 9.2 mph N/A   Overcast
4:53 PM 42.8 °F 41.1 °F 28.4 °F 57% 30.21 in 10.0 mi West 3.5 mph - N/A   Overcast
5:12 PM 42.8 °F 38.0 °F 26.6 °F 53% 30.20 in 10.0 mi WSW 8.1 mph - N/A   Overcast
5:30 PM 42.8 °F 37.0 °F 26.6 °F 53% 30.20 in 10.0 mi WSW 10.4 mph 18.4 mph N/A   Overcast
5:54 PM 44.6 °F 38.8 °F 26.6 °F 49% 30.20 in 10.0 mi WSW 11.5 mph 20.7 mph N/A   Overcast
6:13 PM 42.8 °F 38.0 °F 26.6 °F 53% 30.21 in 10.0 mi West 8.1 mph 18.4 mph N/A   Overcast
6:31 PM 42.8 °F 36.6 °F 28.4 °F 57% 30.21 in 10.0 mi West 11.5 mph 17.3 mph N/A   Overcast
6:49 PM 41.0 °F 35.2 °F 28.4 °F 61% 30.20 in 10.0 mi West 9.2 mph - N/A   Overcast
7:12 PM 41.0 °F 33.9 °F 28.4 °F 61% 30.18 in 10.0 mi WSW 12.7 mph 21.9 mph N/A   Mostly Cloudy
7:30 PM 41.0 °F 36.4 °F 28.4 °F 61% 30.20 in 10.0 mi West 6.9 mph - N/A   Mostly Cloudy
7:54 PM 41.0 °F - 28.4 °F 61% 30.19 in 10.0 mi Calm Calm - N/A   Overcast
8:12 PM 41.0 °F 38.0 °F 28.4 °F 61% 30.20 in 10.0 mi WSW 4.6 mph - N/A   Overcast
8:30 PM 41.0 °F 37.1 °F 28.4 °F 61% 30.21 in 10.0 mi WSW 5.8 mph - N/A   Overcast
8:54 PM 41.0 °F 34.3 °F 28.4 °F 61% 30.19 in 10.0 mi West 11.5 mph 18.4 mph N/A   Overcast
9:12 PM 41.0 °F 35.8 °F 28.4 °F 61% 30.20 in 10.0 mi West 8.1 mph - N/A   Overcast
9:30 PM 41.0 °F 37.1 °F 28.4 °F 61% 30.20 in 10.0 mi West 5.8 mph - N/A   Overcast
9:54 PM 39.2 °F - 28.4 °F 65% 30.19 in 10.0 mi Calm Calm - N/A   Overcast
10:12 PM 39.2 °F - 28.4 °F 65% 30.17 in 10.0 mi Calm Calm - N/A   Overcast
10:29 PM 39.2 °F - 28.4 °F 65% 30.18 in 10.0 mi Calm Calm - N/A   Mostly Cloudy
10:53 PM 39.2 °F - 28.4 °F 65% 30.17 in 10.0 mi Calm Calm - N/A   Mostly Cloudy
11:11 PM 41.0 °F 34.7 °F 28.4 °F 61% 30.17 in 10.0 mi SW 10.4 mph - N/A   Overcast
11:29 PM 41.0 °F 35.2 °F 28.4 °F 61% 30.16 in 10.0 mi SSW 9.2 mph 16.1 mph N/A   Overcast
11:53 PM 41.0 °F 36.4 °F 28.4 °F 61% 30.16 in 10.0 mi SW 6.9 mph - N/A   Overcast